YPWR

Details ICAO YPWR (UMR)
Name Woomera
Region Australia
Timezone Australia/Adelaide (UTC+9.5)
Plans Departing 5
Arriving 4
Stats Elevation 548 ft / 167 m (AMSL)
Location -31.142978° 136.816801°
Runways 2
Magnetic Variation 6.518° E
Sunrise 2018-05-26 21:41:16 UTC / 2018-05-27 07:11:16 Local
Sunset 2018-05-27 08:01:18 UTC / 2018-05-27 17:31:18 Local
Advertisement - Login to hide

Runways

ID Width Length Bearing (true) Bearing (mag) Surface Threshold Offset Overrun Length
12 164 ft / 50 m 6,089 ft / 1,856 m 125.40° 118.88° Unknown 0 ft / 0 m 0 ft / 0 m
18 148 ft / 45 m 7,814 ft / 2,382 m 185.81° 179.29° Asphalt 0 ft / 0 m 194 ft / 59 m
30 164 ft / 50 m 6,089 ft / 1,856 m 305.40° 298.88° Unknown 0 ft / 0 m 0 ft / 0 m
36 148 ft / 45 m 7,814 ft / 2,382 m 5.81° 359.29° Asphalt 0 ft / 0 m 207 ft / 63 m

Map

Weather


0- 5 10 15 20 25 30 35+ Temperature / ° C

Clouds and Precipitation
Forecast for 2018-05-27 06:00 UTC. Updated 31 minutes ago

Ground ~20,000 ft ~40,000 ft Winds

METAR

YPWR 270530Z AUTO 03017KT 9999 // BKN110 BKN125 18/15 Q1016

TAF

TAF YPWR 262307Z 2700/2718 36010KT 9999 -RA NSC FM270300 36015KT 9999 -RA NSC FM271000 02010KT 9999 -RA NSC

Frequencies

Unicom 118.30 MHz CTAF
Tower 118.30 MHz TWR
Warning: Do not use this data for real-world aviation or navigation. No guarantee of current accuracy is given.